Time;durP1;ratioP1;P1;durP2;ratioP2;P2;SDS_P1;SDS_P2;PMS_P1;PMS_P2;Temp;Humidity;BMP_temperature;BMP_pressure;BME280_temperature;BME280_humidity;BME280_pressure;Samples;Min_cycle;Max_cycle;Signal;HPM_P1;HPM_P2
2021/09/17 00:01:52;;;;;;;0.35;0.35;;;;;;;;;;5064875;28;20056;-80
2021/09/17 00:04:18;;;;;;;1.63;0.73;;;;;;;;;;5061729;28;20450;-80
2021/09/17 00:06:44;;;;;;;2.13;1.02;;;;;;;;;;5054077;28;20064;-79
2021/09/17 00:09:10;;;;;;;0.93;0.63;;;;;;;;;;5058661;28;20033;-79
2021/09/17 00:11:37;;;;;;;0.43;0.43;;;;;;;;;;5065589;28;20040;-79
2021/09/17 00:14:03;;;;;;;0.25;0.25;;;;;;;;;;5065403;28;20489;-79
2021/09/17 00:16:29;;;;;;;0.22;0.22;;;;;;;;;;5062989;28;20062;-80
2021/09/17 00:18:55;;;;;;;0.47;0.47;;;;;;;;;;5061609;28;20036;-79
2021/09/17 00:21:21;;;;;;;2.88;1.42;;;;;;;;;;5061774;28;20040;-79
2021/09/17 00:23:47;;;;;;;1.10;0.75;;;;;;;;;;5063634;28;20799;-79
2021/09/17 00:26:13;;;;;;;0.50;0.50;;;;;;;;;;5065409;28;20041;-79
2021/09/17 00:28:39;;;;;;;0.25;0.25;;;;;;;;;;5063745;28;20020;-79
2021/09/17 00:31:05;;;;;;;0.73;0.50;;;;;;;;;;5062242;28;20037;-79
2021/09/17 00:33:31;;;;;;;0.30;0.30;;;;;;;;;;5063422;28;20029;-79
2021/09/17 00:35:57;;;;;;;0.20;0.20;;;;;;;;;;5062542;28;20040;-79
2021/09/17 00:38:24;;;;;;;0.20;0.20;;;;;;;;;;5049502;28;20087;-79
2021/09/17 00:40:50;;;;;;;0.15;0.15;;;;;;;;;;5064279;28;20133;-80
2021/09/17 00:43:16;;;;;;;0.45;0.45;;;;;;;;;;5050865;28;20036;-80
2021/09/17 00:45:44;;;;;;;1.13;0.30;;;;;;;;;;5059604;28;20613;-79
2021/09/17 00:48:10;;;;;;;0.40;0.40;;;;;;;;;;5060447;28;20051;-79
2021/09/17 00:50:37;;;;;;;3.47;1.63;;;;;;;;;;5065068;28;20041;-79
2021/09/17 00:53:03;;;;;;;1.55;0.38;;;;;;;;;;5060917;28;20048;-79
2021/09/17 00:55:29;;;;;;;0.50;0.50;;;;;;;;;;5062053;28;20024;-78
2021/09/17 00:57:56;;;;;;;0.93;0.60;;;;;;;;;;5062476;28;20029;-79
2021/09/17 01:00:22;;;;;;;0.95;0.38;;;;;;;;;;5061752;28;20040;-79
2021/09/17 01:02:48;;;;;;;0.98;0.88;;;;;;;;;;5064758;28;20079;-79
2021/09/17 01:05:15;;;;;;;6.68;1.50;;;;;;;;;;5065409;28;20037;-78
2021/09/17 01:07:42;;;;;;;0.80;0.50;;;;;;;;;;5067839;28;20031;-79
2021/09/17 01:10:09;;;;;;;2.85;1.58;;;;;;;;;;5064497;28;20483;-79
2021/09/17 01:12:35;;;;;;;;;;;;;;;;;;5040152;28;20034;-79
2021/09/17 01:15:01;;;;;;;0.28;0.28;;;;;;;;;;5060546;28;20285;-79
2021/09/17 01:17:31;;;;;;;1.05;0.77;;;;;;;;;;5064751;28;20032;-79
2021/09/17 01:19:57;;;;;;;1.77;0.60;;;;;;;;;;5063192;28;20032;-80
2021/09/17 01:22:23;;;;;;;0.60;0.60;;;;;;;;;;5061617;28;20036;-80
2021/09/17 01:24:49;;;;;;;0.20;0.20;;;;;;;;;;5060759;28;20024;-80
2021/09/17 01:27:15;;;;;;;3.22;0.52;;;;;;;;;;5062240;28;20024;-80
2021/09/17 01:29:42;;;;;;;2.80;1.27;;;;;;;;;;5063003;28;20036;-80
2021/09/17 01:32:08;;;;;;;0.47;0.47;;;;;;;;;;5063286;28;20029;-80
2021/09/17 01:34:34;;;;;;;0.30;0.30;;;;;;;;;;5051346;28;20033;-80
2021/09/17 01:37:00;;;;;;;0.45;0.20;;;;;;;;;;5038960;28;20036;-80
2021/09/17 01:39:26;;;;;;;2.22;1.25;;;;;;;;;;5043949;28;20493;-80
2021/09/17 01:41:53;;;;;;;0.45;0.45;;;;;;;;;;5062385;28;20029;-80
2021/09/17 01:44:19;;;;;;;0.55;0.55;;;;;;;;;;5065273;28;20037;-79
2021/09/17 01:46:45;;;;;;;0.63;0.50;;;;;;;;;;5061857;28;20555;-81
2021/09/17 01:49:11;;;;;;;2.17;1.30;;;;;;;;;;5059180;28;20086;-80
2021/09/17 01:51:37;;;;;;;0.47;0.47;;;;;;;;;;5059799;28;20036;-80
2021/09/17 01:54:04;;;;;;;0.82;0.70;;;;;;;;;;5061163;28;20036;-80
2021/09/17 01:56:30;;;;;;;;;;;;;;;;;;5064807;28;20041;-80
2021/09/17 01:58:56;;;;;;;1.10;0.95;;;;;;;;;;5050239;28;20578;-80
2021/09/17 02:01:22;;;;;;;0.88;0.85;;;;;;;;;;5052702;28;20087;-80
2021/09/17 02:03:48;;;;;;;12.57;0.90;;;;;;;;;;5060201;28;20107;-80
2021/09/17 02:06:18;;;;;;;4.20;0.47;;;;;;;;;;5062922;28;20731;-81
2021/09/17 02:08:44;;;;;;;2.08;0.60;;;;;;;;;;5061729;28;20591;-80
2021/09/17 02:11:11;;;;;;;0.52;0.52;;;;;;;;;;5063384;28;20068;-80
2021/09/17 02:13:37;;;;;;;1.40;0.85;;;;;;;;;;5065102;28;20033;-80
2021/09/17 02:16:03;;;;;;;0.40;0.40;;;;;;;;;;5060157;28;20060;-81
2021/09/17 02:18:29;;;;;;;2.10;0.55;;;;;;;;;;5055703;28;20025;-80
2021/09/17 02:20:55;;;;;;;2.08;1.13;;;;;;;;;;5070426;28;20029;-81
2021/09/17 02:23:21;;;;;;;1.15;0.45;;;;;;;;;;5064155;28;20036;-81
2021/09/17 02:25:47;;;;;;;0.43;0.43;;;;;;;;;;5062333;28;20055;-80
2021/09/17 02:28:13;;;;;;;4.07;1.15;;;;;;;;;;5055471;28;20036;-80
2021/09/17 02:30:39;;;;;;;0.82;0.82;;;;;;;;;;5064097;28;20508;-81
2021/09/17 02:33:06;;;;;;;3.75;0.35;;;;;;;;;;5061563;28;20033;-80
2021/09/17 02:35:32;;;;;;;1.05;0.63;;;;;;;;;;5064210;28;20107;-80
2021/09/17 02:37:58;;;;;;;2.75;1.02;;;;;;;;;;5056011;28;20062;-80
2021/09/17 02:40:24;;;;;;;5.72;0.50;;;;;;;;;;5057389;28;20032;-80
2021/09/17 02:42:50;;;;;;;0.52;0.50;;;;;;;;;;5057246;28;20029;-80
2021/09/17 02:45:16;;;;;;;0.32;0.32;;;;;;;;;;5057066;28;20028;-81
2021/09/17 02:47:43;;;;;;;3.90;0.90;;;;;;;;;;5060562;28;20111;-80
2021/09/17 02:50:10;;;;;;;0.50;0.50;;;;;;;;;;5062344;28;20135;-81
2021/09/17 02:52:36;;;;;;;0.40;0.40;;;;;;;;;;5062113;28;20127;-80
2021/09/17 02:55:03;;;;;;;0.57;0.57;;;;;;;;;;5060051;28;20039;-81
2021/09/17 02:57:29;;;;;;;1.70;0.85;;;;;;;;;;5054544;28;20055;-80
2021/09/17 02:59:55;;;;;;;0.93;0.90;;;;;;;;;;5059651;28;20056;-80
2021/09/17 03:02:21;;;;;;;1.20;0.93;;;;;;;;;;5065804;28;20070;-80
2021/09/17 03:04:47;;;;;;;0.88;0.70;;;;;;;;;;5039496;28;20024;-80
2021/09/17 03:07:13;;;;;;;0.93;0.93;;;;;;;;;;5062983;28;20116;-80
2021/09/17 03:09:39;;;;;;;0.25;0.25;;;;;;;;;;5056150;28;20802;-80
2021/09/17 03:12:05;;;;;;;0.80;0.80;;;;;;;;;;5063575;28;20041;-80
2021/09/17 03:14:31;;;;;;;1.02;0.98;;;;;;;;;;5067456;28;20032;-80
2021/09/17 03:16:57;;;;;;;0.22;0.22;;;;;;;;;;5063596;28;20068;-80
2021/09/17 03:19:24;;;;;;;5.60;1.98;;;;;;;;;;5064042;28;20027;-81
2021/09/17 03:21:50;;;;;;;2.65;0.70;;;;;;;;;;5057530;28;20064;-80
2021/09/17 03:24:16;;;;;;;1.80;0.40;;;;;;;;;;5064447;28;20012;-81
2021/09/17 03:26:42;;;;;;;0.65;0.65;;;;;;;;;;5065004;28;20838;-81
2021/09/17 03:29:08;;;;;;;1.55;0.73;;;;;;;;;;5065620;28;20063;-80
2021/09/17 03:31:34;;;;;;;0.85;0.85;;;;;;;;;;5057083;28;20115;-81
2021/09/17 03:34:00;;;;;;;0.38;0.38;;;;;;;;;;5065181;28;20035;-80
2021/09/17 03:36:27;;;;;;;0.35;0.32;;;;;;;;;;5062923;28;20028;-80
2021/09/17 03:38:54;;;;;;;1.30;0.80;;;;;;;;;;5063373;28;20025;-81
2021/09/17 03:41:20;;;;;;;;;;;;;;;;;;5066764;28;20025;-80
2021/09/17 03:43:46;;;;;;;0.77;0.77;;;;;;;;;;5065108;28;19912;-80
2021/09/17 03:46:12;;;;;;;2.50;0.35;;;;;;;;;;5062413;28;20102;-80
2021/09/17 03:48:38;;;;;;;0.75;0.50;;;;;;;;;;5061954;28;20041;-80
2021/09/17 03:51:05;;;;;;;1.45;0.75;;;;;;;;;;5065248;28;20045;-81
2021/09/17 03:53:31;;;;;;;0.75;0.75;;;;;;;;;;5064778;28;20044;-80
2021/09/17 03:55:57;;;;;;;0.55;0.55;;;;;;;;;;5065453;28;20020;-80
2021/09/17 03:58:23;;;;;;;0.52;0.52;;;;;;;;;;5060210;28;20039;-80
2021/09/17 04:00:49;;;;;;;0.40;0.40;;;;;;;;;;5061935;28;20048;-80
2021/09/17 04:03:15;;;;;;;1.33;0.60;;;;;;;;;;5063004;28;20032;-79
2021/09/17 04:05:42;;;;;;;0.65;0.65;;;;;;;;;;5064997;28;20032;-80
2021/09/17 04:08:08;;;;;;;0.38;0.38;;;;;;;;;;5062224;28;20033;-80
2021/09/17 04:10:34;;;;;;;0.68;0.60;;;;;;;;;;5053305;28;20538;-80
2021/09/17 04:13:00;;;;;;;0.13;0.13;;;;;;;;;;5049336;28;20036;-79
2021/09/17 04:15:27;;;;;;;0.65;0.65;;;;;;;;;;5060864;28;20025;-79
2021/09/17 04:17:53;;;;;;;0.68;0.68;;;;;;;;;;5067404;28;20044;-79
2021/09/17 04:20:19;;;;;;;0.73;0.68;;;;;;;;;;5066015;28;20033;-80
2021/09/17 04:22:45;;;;;;;1.98;1.30;;;;;;;;;;5063292;28;20044;-79
2021/09/17 04:25:11;;;;;;;0.17;0.17;;;;;;;;;;5062831;28;20037;-79
2021/09/17 04:27:37;;;;;;;;;;;;;;;;;;5061946;28;20031;-79
2021/09/17 04:30:04;;;;;;;1.00;1.00;;;;;;;;;;5063675;28;19912;-79
2021/09/17 04:32:31;;;;;;;1.17;1.10;;;;;;;;;;5049879;28;20124;-79
2021/09/17 04:34:57;;;;;;;2.95;1.27;;;;;;;;;;5064615;28;20028;-79
2021/09/17 04:37:23;;;;;;;0.43;0.43;;;;;;;;;;5062006;28;20033;-80
2021/09/17 04:39:49;;;;;;;0.38;0.38;;;;;;;;;;5062169;28;20107;-79
2021/09/17 04:42:15;;;;;;;0.80;0.30;;;;;;;;;;5063938;28;20491;-80
2021/09/17 04:44:41;;;;;;;0.93;0.93;;;;;;;;;;5062341;28;20082;-79
2021/09/17 04:47:07;;;;;;;0.50;0.50;;;;;;;;;;5064055;28;20035;-79
2021/09/17 04:49:34;;;;;;;1.15;0.93;;;;;;;;;;5062876;28;20017;-79
2021/09/17 04:52:00;;;;;;;1.35;1.17;;;;;;;;;;5061496;28;20127;-80
2021/09/17 04:54:26;;;;;;;0.30;0.30;;;;;;;;;;5061903;28;20086;-80
2021/09/17 04:56:52;;;;;;;1.30;1.25;;;;;;;;;;5065785;28;20036;-80
2021/09/17 04:59:18;;;;;;;1.88;1.08;;;;;;;;;;5065379;28;20040;-80
2021/09/17 05:01:44;;;;;;;1.42;1.30;;;;;;;;;;5052617;28;20416;-80
2021/09/17 05:04:10;;;;;;;2.47;0.88;;;;;;;;;;5053553;28;20089;-80
2021/09/17 05:06:36;;;;;;;1.38;1.10;;;;;;;;;;5058893;28;20029;-80
2021/09/17 05:09:02;;;;;;;2.72;0.98;;;;;;;;;;5057239;28;20025;-80
2021/09/17 05:11:29;;;;;;;1.33;1.05;;;;;;;;;;5063247;28;20032;-80
2021/09/17 05:13:55;;;;;;;0.70;0.70;;;;;;;;;;5049508;28;20032;-80
2021/09/17 05:16:21;;;;;;;4.07;1.42;;;;;;;;;;5053495;28;20022;-81
2021/09/17 05:18:47;;;;;;;4.90;1.05;;;;;;;;;;5045802;28;20393;-80
2021/09/17 05:21:13;;;;;;;0.88;0.85;;;;;;;;;;5059564;28;20073;-81
2021/09/17 05:23:40;;;;;;;0.65;0.65;;;;;;;;;;5059357;28;20039;-81
2021/09/17 05:26:06;;;;;;;2.92;1.67;;;;;;;;;;5062161;28;20067;-81
2021/09/17 05:28:33;;;;;;;1.88;1.50;;;;;;;;;;5053721;28;20032;-81
2021/09/17 05:31:00;;;;;;;1.13;0.80;;;;;;;;;;5057322;28;20047;-80
2021/09/17 05:33:26;;;;;;;1.42;1.33;;;;;;;;;;5059977;28;20063;-81
2021/09/17 05:35:52;;;;;;;1.50;1.40;;;;;;;;;;5059053;28;20060;-81
2021/09/17 05:38:18;;;;;;;0.80;0.80;;;;;;;;;;5060357;28;20043;-80
2021/09/17 05:40:44;;;;;;;1.67;0.80;;;;;;;;;;5057202;28;20037;-80
2021/09/17 05:43:11;;;;;;;0.50;0.30;;;;;;;;;;5056848;28;20040;-81
2021/09/17 05:45:37;;;;;;;1.42;1.08;;;;;;;;;;5057031;28;20029;-81
2021/09/17 05:48:03;;;;;;;3.40;1.50;;;;;;;;;;5038475;28;20044;-79
2021/09/17 05:50:29;;;;;;;4.18;1.75;;;;;;;;;;5061138;28;20049;-79
2021/09/17 05:52:55;;;;;;;2.08;0.90;;;;;;;;;;5058980;28;20151;-80
2021/09/17 05:55:27;;;;;;;0.70;0.70;;;;;;;;;;5056455;28;20044;-80
2021/09/17 05:57:53;;;;;;;0.60;0.60;;;;;;;;;;5061148;28;20047;-80
2021/09/17 06:00:19;;;;;;;0.95;0.80;;;;;;;;;;5055774;28;20040;-79
2021/09/17 06:02:45;;;;;;;1.95;1.85;;;;;;;;;;5058856;28;20032;-80
2021/09/17 06:05:11;;;;;;;0.95;0.95;;;;;;;;;;5060119;28;20423;-79
2021/09/17 06:07:44;;;;;;;1.15;1.05;;;;;;;;;;5047308;28;20413;-80
2021/09/17 06:10:10;;;;;;;1.15;1.15;;;;;;;;;;5048115;28;20043;-80
2021/09/17 06:12:36;;;;;;;1.30;1.20;;;;;;;;;;5053466;28;20040;-80
2021/09/17 06:15:02;;;;;;;0.30;0.30;;;;;;;;;;5046622;28;20029;-79
2021/09/17 06:17:29;;;;;;;1.42;1.33;;;;;;;;;;5060584;28;20572;-79
2021/09/17 06:19:55;;;;;;;4.15;1.55;;;;;;;;;;5059308;28;20033;-79
2021/09/17 06:22:21;;;;;;;4.30;0.70;;;;;;;;;;5056494;28;20544;-80
2021/09/17 06:24:47;;;;;;;0.45;0.45;;;;;;;;;;5056985;28;21062;-79
2021/09/17 06:27:13;;;;;;;0.93;0.93;;;;;;;;;;5061425;28;20125;-79
2021/09/17 06:29:39;;;;;;;2.33;1.10;;;;;;;;;;5059004;28;20028;-78
2021/09/17 06:32:05;;;;;;;6.00;2.07;;;;;;;;;;5059129;28;20075;-78
2021/09/17 06:34:32;;;;;;;0.30;0.30;;;;;;;;;;5058496;28;20277;-79
2021/09/17 06:36:58;;;;;;;;;;;;;;;;;;5060596;28;20059;-79
2021/09/17 06:39:24;;;;;;;2.47;1.00;;;;;;;;;;5060099;28;19920;-79
2021/09/17 06:41:51;;;;;;;0.60;0.60;;;;;;;;;;5070661;28;20024;-82
2021/09/17 06:44:17;;;;;;;0.85;0.85;;;;;;;;;;5061770;28;20450;-82
2021/09/17 06:46:44;;;;;;;0.35;0.35;;;;;;;;;;5064255;28;20037;-84
2021/09/17 06:49:10;;;;;;;2.17;1.10;;;;;;;;;;5060290;28;20527;-83
2021/09/17 06:51:36;;;;;;;3.10;0.55;;;;;;;;;;5063486;28;20048;-82
2021/09/17 06:54:02;;;;;;;1.88;1.25;;;;;;;;;;5060076;28;20501;-83
2021/09/17 06:56:28;;;;;;;2.88;1.10;;;;;;;;;;5078079;28;20028;-82
2021/09/17 06:58:55;;;;;;;0.40;0.40;;;;;;;;;;5062134;28;20037;-83
2021/09/17 07:01:22;;;;;;;2.25;1.08;;;;;;;;;;5059774;28;20279;-81
2021/09/17 07:03:48;;;;;;;0.70;0.70;;;;;;;;;;5060420;28;20376;-82
2021/09/17 07:06:14;;;;;;;2.35;0.73;;;;;;;;;;5043495;28;20032;-82
2021/09/17 07:08:41;;;;;;;1.48;1.38;;;;;;;;;;5060191;28;20024;-82
2021/09/17 07:11:07;;;;;;;0.57;0.57;;;;;;;;;;5061538;28;20822;-84
2021/09/17 07:13:33;;;;;;;0.75;0.75;;;;;;;;;;5059564;28;20047;-85
2021/09/17 07:15:59;;;;;;;2.28;1.00;;;;;;;;;;5063698;28;20020;-85
2021/09/17 07:18:25;;;;;;;1.08;1.08;;;;;;;;;;5052934;28;20102;-85
2021/09/17 07:20:51;;;;;;;0.57;0.57;;;;;;;;;;5049383;28;20100;-84
2021/09/17 07:23:18;;;;;;;0.75;0.75;;;;;;;;;;5062772;28;20032;-84
2021/09/17 07:25:44;;;;;;;0.57;0.57;;;;;;;;;;5062625;28;20043;-85
2021/09/17 07:28:11;;;;;;;0.45;0.45;;;;;;;;;;5060213;28;20032;-85
2021/09/17 07:30:37;;;;;;;0.43;0.40;;;;;;;;;;5060548;28;20132;-84
2021/09/17 07:33:03;;;;;;;1.15;0.68;;;;;;;;;;5060459;28;20036;-85
2021/09/17 07:35:29;;;;;;;0.70;0.68;;;;;;;;;;5064729;28;20025;-85
2021/09/17 07:37:57;;;;;;;1.73;1.63;;;;;;;;;;5062491;28;20046;-84
2021/09/17 07:40:23;;;;;;;0.90;0.90;;;;;;;;;;5060147;28;20037;-85
2021/09/17 07:42:50;;;;;;;0.70;0.70;;;;;;;;;;5060170;28;20033;-85
2021/09/17 07:45:16;;;;;;;1.15;0.90;;;;;;;;;;5060149;28;20041;-86
2021/09/17 07:47:43;;;;;;;0.68;0.68;;;;;;;;;;5061245;28;20033;-85
2021/09/17 07:50:10;;;;;;;0.47;0.47;;;;;;;;;;5062566;28;20792;-85
2021/09/17 07:52:36;;;;;;;0.60;0.60;;;;;;;;;;5059934;28;20456;-84
2021/09/17 07:55:03;;;;;;;1.40;1.13;;;;;;;;;;5059630;28;20059;-84
2021/09/17 07:57:29;;;;;;;;;;;;;;;;;;5060032;28;20543;-84
2021/09/17 07:59:55;;;;;;;0.73;0.73;;;;;;;;;;5060541;28;19909;-85
2021/09/17 08:02:21;;;;;;;1.10;0.73;;;;;;;;;;5063227;28;20047;-84
2021/09/17 08:04:47;;;;;;;0.88;0.40;;;;;;;;;;5061847;28;20029;-85
2021/09/17 08:07:14;;;;;;;0.50;0.50;;;;;;;;;;5059161;28;20741;-85
2021/09/17 08:09:40;;;;;;;1.02;0.68;;;;;;;;;;5059664;28;20024;-84
2021/09/17 08:12:06;;;;;;;1.02;0.93;;;;;;;;;;5059697;28;20064;-85
2021/09/17 08:14:32;;;;;;;1.10;0.65;;;;;;;;;;5063262;28;20025;-85
2021/09/17 08:16:58;;;;;;;0.90;0.80;;;;;;;;;;5061881;28;20762;-85
2021/09/17 08:19:25;;;;;;;0.80;0.80;;;;;;;;;;5035735;28;20510;-84
2021/09/17 08:21:51;;;;;;;1.92;0.80;;;;;;;;;;5054382;28;20063;-84
2021/09/17 08:24:17;;;;;;;0.75;0.57;;;;;;;;;;5059161;28;20029;-84
2021/09/17 08:26:47;;;;;;;2.90;1.90;;;;;;;;;;5061581;28;20515;-85
2021/09/17 08:29:14;;;;;;;0.28;0.28;;;;;;;;;;5060538;28;20032;-84
2021/09/17 08:31:40;;;;;;;0.98;0.98;;;;;;;;;;5060935;28;20024;-84
2021/09/17 08:34:07;;;;;;;0.60;0.60;;;;;;;;;;5058811;28;20405;-84
2021/09/17 08:36:34;;;;;;;1.55;1.17;;;;;;;;;;5058515;28;20028;-84
2021/09/17 08:39:00;;;;;;;;;;;;;;;;;;5059687;28;20051;-84
2021/09/17 08:41:26;;;;;;;2.95;1.45;;;;;;;;;;5063144;28;19916;-85
2021/09/17 08:43:52;;;;;;;8.07;1.65;;;;;;;;;;5061020;28;20055;-85
2021/09/17 08:46:19;;;;;;;0.65;0.50;;;;;;;;;;5058645;28;20039;-85
2021/09/17 08:48:48;;;;;;;0.47;0.40;;;;;;;;;;5058825;28;20070;-85
2021/09/17 08:51:14;;;;;;;0.88;0.85;;;;;;;;;;5058888;28;20060;-85
2021/09/17 08:53:40;;;;;;;0.75;0.70;;;;;;;;;;5050135;28;20040;-85
2021/09/17 08:56:08;;;;;;;1.08;0.98;;;;;;;;;;5061067;28;20439;-85
2021/09/17 08:58:34;;;;;;;0.30;0.22;;;;;;;;;;5059797;28;20029;-84
2021/09/17 09:01:00;;;;;;;1.23;0.75;;;;;;;;;;5058531;28;20036;-85
2021/09/17 09:03:34;;;;;;;0.20;0.20;;;;;;;;;;5058000;28;20056;-85
2021/09/17 09:06:10;;;;;;;0.55;0.55;;;;;;;;;;5058542;28;20047;-84
2021/09/17 09:08:39;;;;;;;0.30;0.30;;;;;;;;;;5047202;28;20024;-85
2021/09/17 09:11:22;;;;;;;0.22;0.22;;;;;;;;;;5061220;28;20048;-85
2021/09/17 09:13:57;;;;;;;0.57;0.57;;;;;;;;;;5049517;28;20029;-86
2021/09/17 09:16:23;;;;;;;0.63;0.63;;;;;;;;;;5034608;28;20036;-85
2021/09/17 09:18:49;;;;;;;0.40;0.40;;;;;;;;;;5053263;28;20032;-84
2021/09/17 09:21:29;;;;;;;0.93;0.90;;;;;;;;;;5058204;28;20072;-84
2021/09/17 09:24:08;;;;;;;0.13;0.13;;;;;;;;;;5058941;28;20035;-85
2021/09/17 09:26:35;;;;;;;2.20;1.45;;;;;;;;;;5029027;28;20037;-84
2021/09/17 09:29:01;;;;;;;1.25;1.08;;;;;;;;;;5060447;28;20046;-85
2021/09/17 09:31:38;;;;;;;0.85;0.80;;;;;;;;;;5049308;28;20072;-85
2021/09/17 09:34:04;;;;;;;0.65;0.65;;;;;;;;;;5055120;28;20042;-85
2021/09/17 09:36:35;;;;;;;0.73;0.70;;;;;;;;;;5057764;28;20028;-85
2021/09/17 09:39:01;;;;;;;0.40;0.40;;;;;;;;;;5041061;28;20080;-85
2021/09/17 09:41:28;;;;;;;0.50;0.50;;;;;;;;;;5046332;28;20425;-85
2021/09/17 09:43:54;;;;;;;2.90;1.75;;;;;;;;;;5059789;28;20493;-85
2021/09/17 09:46:20;;;;;;;0.43;0.43;;;;;;;;;;5057691;28;20342;-85
2021/09/17 09:49:01;;;;;;;1.38;1.23;;;;;;;;;;5057533;28;20036;-84
2021/09/17 09:51:28;;;;;;;1.25;1.15;;;;;;;;;;5057191;28;20048;-85
2021/09/17 09:53:54;;;;;;;0.85;0.63;;;;;;;;;;5058650;28;20039;-85
2021/09/17 09:56:21;;;;;;;0.60;0.60;;;;;;;;;;5060332;28;20448;-84
2021/09/17 09:58:50;;;;;;;0.68;0.40;;;;;;;;;;5045283;28;20032;-86
2021/09/17 10:01:18;;;;;;;0.73;0.70;;;;;;;;;;5056360;28;20086;-85
2021/09/17 10:03:45;;;;;;;0.32;0.32;;;;;;;;;;5057129;28;20032;-84
2021/09/17 10:06:14;;;;;;;0.10;0.10;;;;;;;;;;5057418;28;20036;-84
2021/09/17 10:08:40;;;;;;;1.17;0.68;;;;;;;;;;5060451;28;20587;-85
2021/09/17 10:11:06;;;;;;;0.75;0.63;;;;;;;;;;5059489;28;20071;-85
2021/09/17 10:13:32;;;;;;;0.65;0.35;;;;;;;;;;5058243;28;20066;-85
2021/09/17 10:15:59;;;;;;;0.52;0.52;;;;;;;;;;5057405;28;20025;-85
2021/09/17 10:18:25;;;;;;;0.65;0.65;;;;;;;;;;5056919;28;20599;-85
2021/09/17 10:20:51;;;;;;;0.55;0.55;;;;;;;;;;5058775;28;20156;-84
2021/09/17 10:23:25;;;;;;;0.93;0.90;;;;;;;;;;5060147;28;20872;-85
2021/09/17 10:26:05;;;;;;;0.70;0.43;;;;;;;;;;5059491;28;20056;-84
2021/09/17 10:28:31;;;;;;;0.70;0.70;;;;;;;;;;5058504;28;20060;-85
2021/09/17 10:31:14;;;;;;;1.65;0.47;;;;;;;;;;5057001;28;20024;-85
2021/09/17 10:33:40;;;;;;;1.02;0.90;;;;;;;;;;5056645;28;20033;-84
2021/09/17 10:36:07;;;;;;;0.63;0.45;;;;;;;;;;5057331;28;20104;-85
2021/09/17 10:38:34;;;;;;;0.35;0.35;;;;;;;;;;5061227;28;20527;-84
2021/09/17 10:41:02;;;;;;;0.55;0.55;;;;;;;;;;5059698;28;20032;-85
2021/09/17 10:43:37;;;;;;;0.47;0.30;;;;;;;;;;5048849;28;20025;-85
2021/09/17 10:46:23;;;;;;;5.53;0.40;;;;;;;;;;5053285;28;20032;-85
2021/09/17 10:48:51;;;;;;;0.90;0.57;;;;;;;;;;5038138;28;20025;-85
2021/09/17 10:51:37;;;;;;;0.22;0.22;;;;;;;;;;5055886;28;20049;-85
2021/09/17 10:54:08;;;;;;;3.00;1.17;;;;;;;;;;5047853;28;20165;-85
2021/09/17 10:56:50;;;;;;;0.30;0.30;;;;;;;;;;5042840;28;20513;-84
2021/09/17 10:59:21;;;;;;;0.63;0.63;;;;;;;;;;5058638;28;20017;-85
2021/09/17 11:01:49;;;;;;;0.30;0.30;;;;;;;;;;5047454;28;20079;-85
2021/09/17 11:04:29;;;;;;;0.30;0.30;;;;;;;;;;5055542;28;20060;-84
2021/09/17 11:06:55;;;;;;;0.20;0.20;;;;;;;;;;5056517;28;20041;-85
2021/09/17 11:09:41;;;;;;;0.90;0.90;;;;;;;;;;5056789;28;20068;-84
2021/09/17 11:12:29;;;;;;;0.68;0.68;;;;;;;;;;5054756;28;20041;-85
2021/09/17 11:15:14;;;;;;;0.17;0.17;;;;;;;;;;5056043;28;20020;-84
2021/09/17 11:17:40;;;;;;;0.20;0.20;;;;;;;;;;5044643;28;20028;-85
2021/09/17 11:20:08;;;;;;;0.22;0.22;;;;;;;;;;5046008;28;20025;-85
2021/09/17 11:22:46;;;;;;;0.10;0.10;;;;;;;;;;5061048;28;20821;-84
2021/09/17 11:25:12;;;;;;;0.38;0.38;;;;;;;;;;5060394;28;20045;-84
2021/09/17 11:27:43;;;;;;;0.25;0.25;;;;;;;;;;5042335;28;20490;-85
2021/09/17 11:30:10;;;;;;;0.10;0.10;;;;;;;;;;5049014;28;20585;-84
2021/09/17 11:32:36;;;;;;;2.65;0.75;;;;;;;;;;5064063;28;20037;-84
2021/09/17 11:35:06;;;;;;;0.32;0.22;;;;;;;;;;5049468;28;20824;-84
2021/09/17 11:37:32;;;;;;;0.57;0.55;;;;;;;;;;5059613;28;20024;-85
2021/09/17 11:40:08;;;;;;;0.20;0.20;;;;;;;;;;5037101;28;20033;-85
2021/09/17 11:42:34;;;;;;;0.10;0.10;;;;;;;;;;5047057;28;20029;-84
2021/09/17 11:45:10;;;;;;;0.10;0.10;;;;;;;;;;5045843;28;20076;-85
2021/09/17 11:47:36;;;;;;;2.60;0.20;;;;;;;;;;5046110;28;20448;-85
2021/09/17 11:50:08;;;;;;;0.75;0.52;;;;;;;;;;5047198;28;20045;-85
2021/09/17 11:52:39;;;;;;;0.28;0.28;;;;;;;;;;5049606;28;20084;-85
2021/09/17 11:55:10;;;;;;;0.20;0.20;;;;;;;;;;5050233;28;20033;-86
2021/09/17 11:57:39;;;;;;;0.10;0.10;;;;;;;;;;5034401;28;20523;-85
2021/09/17 12:00:09;;;;;;;0.10;0.10;;;;;;;;;;5060448;28;20032;-85
2021/09/17 12:02:35;;;;;;;0.60;0.47;;;;;;;;;;5047792;28;20110;-86
2021/09/17 12:05:02;;;;;;;0.00;0.00;;;;;;;;;;5047828;28;20581;-85
2021/09/17 12:07:30;;;;;;;0.10;0.10;;;;;;;;;;5051918;28;20028;-85
2021/09/17 12:09:57;;;;;;;0.10;0.10;;;;;;;;;;5049150;28;20044;-85
2021/09/17 12:12:33;;;;;;;0.25;0.25;;;;;;;;;;5048664;28;20044;-85
2021/09/17 12:14:59;;;;;;;0.17;0.17;;;;;;;;;;5046364;28;20029;-84
2021/09/17 12:17:25;;;;;;;0.10;0.10;;;;;;;;;;5045483;28;20033;-85
2021/09/17 12:20:01;;;;;;;0.00;0.00;;;;;;;;;;5059280;28;20524;-85
2021/09/17 12:22:38;;;;;;;0.10;0.10;;;;;;;;;;5050879;28;20037;-85
2021/09/17 12:25:10;;;;;;;0.10;0.10;;;;;;;;;;5046238;28;20036;-86
2021/09/17 12:27:38;;;;;;;1.52;0.73;;;;;;;;;;5029249;28;20569;-85
2021/09/17 12:30:16;;;;;;;0.20;0.20;;;;;;;;;;5047821;28;20490;-84
2021/09/17 12:32:45;;;;;;;0.20;0.20;;;;;;;;;;5060728;28;20115;-84
2021/09/17 12:35:15;;;;;;;0.38;0.38;;;;;;;;;;5060167;28;20078;-85
2021/09/17 12:37:53;;;;;;;1.52;0.93;;;;;;;;;;5049564;28;20175;-85
2021/09/17 12:40:21;;;;;;;0.08;0.08;;;;;;;;;;5055844;28;20041;-85
2021/09/17 12:43:07;;;;;;;0.10;0.10;;;;;;;;;;5039639;28;20482;-85
2021/09/17 12:45:34;;;;;;;0.20;0.20;;;;;;;;;;5051701;28;20029;-84
2021/09/17 12:48:01;;;;;;;1.48;0.35;;;;;;;;;;5058859;28;20033;-85
2021/09/17 12:50:28;;;;;;;0.17;0.17;;;;;;;;;;5062991;28;20057;-85
2021/09/17 12:52:54;;;;;;;0.30;0.30;;;;;;;;;;5060594;28;20064;-83
2021/09/17 12:55:30;;;;;;;0.30;0.28;;;;;;;;;;5058284;28;20024;-85
2021/09/17 12:57:59;;;;;;;0.30;0.30;;;;;;;;;;5055359;28;20037;-84
2021/09/17 13:00:26;;;;;;;0.52;0.50;;;;;;;;;;5050028;28;20089;-84
2021/09/17 13:02:53;;;;;;;0.25;0.25;;;;;;;;;;5053867;28;20032;-85
2021/09/17 13:05:23;;;;;;;0.13;0.13;;;;;;;;;;5048674;28;20111;-85
2021/09/17 13:07:49;;;;;;;0.10;0.10;;;;;;;;;;5049572;28;20024;-85
2021/09/17 13:10:15;;;;;;;0.15;0.15;;;;;;;;;;5052181;28;20033;-84
2021/09/17 13:12:41;;;;;;;0.20;0.20;;;;;;;;;;5051306;28;20048;-85
2021/09/17 13:15:08;;;;;;;0.38;0.30;;;;;;;;;;5058168;28;20020;-85
2021/09/17 13:17:34;;;;;;;0.20;0.20;;;;;;;;;;5062281;28;20078;-85
2021/09/17 13:20:00;;;;;;;0.05;0.05;;;;;;;;;;5061089;28;20021;-81
2021/09/17 13:22:26;;;;;;;0.10;0.10;;;;;;;;;;5058832;28;20040;-83
2021/09/17 13:24:52;;;;;;;0.25;0.20;;;;;;;;;;5058205;28;20123;-83
2021/09/17 13:27:18;;;;;;;0.10;0.03;;;;;;;;;;5058002;28;20401;-82
2021/09/17 13:29:45;;;;;;;0.13;0.13;;;;;;;;;;5060879;28;20086;-82
2021/09/17 13:32:11;;;;;;;0.00;0.00;;;;;;;;;;5060803;28;20851;-82
2021/09/17 13:34:37;;;;;;;0.10;0.10;;;;;;;;;;5060203;28;20032;-82
2021/09/17 13:37:03;;;;;;;0.32;0.30;;;;;;;;;;5049340;28;20095;-81
2021/09/17 13:39:29;;;;;;;0.00;0.00;;;;;;;;;;5049728;28;20029;-82
2021/09/17 13:41:55;;;;;;;0.15;0.15;;;;;;;;;;5059062;28;20044;-82
2021/09/17 13:44:21;;;;;;;1.65;0.55;;;;;;;;;;5060872;28;20029;-82
2021/09/17 13:46:47;;;;;;;0.98;0.82;;;;;;;;;;5057344;28;20099;-82
2021/09/17 13:49:14;;;;;;;0.03;0.03;;;;;;;;;;5048660;28;20078;-82
2021/09/17 13:51:40;;;;;;;0.30;0.30;;;;;;;;;;5033791;28;20095;-82
2021/09/17 13:54:06;;;;;;;0.40;0.40;;;;;;;;;;5049448;28;20068;-83
2021/09/17 13:56:32;;;;;;;0.50;0.50;;;;;;;;;;5043821;28;20033;-82
2021/09/17 13:58:58;;;;;;;0.20;0.20;;;;;;;;;;5045883;28;20115;-81
2021/09/17 14:01:24;;;;;;;0.43;0.35;;;;;;;;;;5028147;28;20405;-82
2021/09/17 14:03:51;;;;;;;0.10;0.10;;;;;;;;;;5028141;28;20040;-81
2021/09/17 14:06:17;;;;;;;1.00;0.38;;;;;;;;;;5047189;28;20035;-82
2021/09/17 14:08:43;;;;;;;0.17;0.17;;;;;;;;;;5060453;28;20090;-82
2021/09/17 14:11:09;;;;;;;0.10;0.10;;;;;;;;;;5045794;28;20033;-82
2021/09/17 14:13:36;;;;;;;0.52;0.43;;;;;;;;;;5058419;28;20868;-81
2021/09/17 14:16:03;;;;;;;1.55;0.98;;;;;;;;;;5057285;28;20041;-81
2021/09/17 14:18:29;;;;;;;0.47;0.40;;;;;;;;;;5057617;28;20035;-81
2021/09/17 14:20:55;;;;;;;0.30;0.30;;;;;;;;;;5058677;28;20224;-81
2021/09/17 14:23:21;;;;;;;0.20;0.20;;;;;;;;;;5060254;28;20086;-82
2021/09/17 14:25:47;;;;;;;0.20;0.20;;;;;;;;;;5059703;28;20046;-82
2021/09/17 14:28:13;;;;;;;0.25;0.25;;;;;;;;;;5049979;28;20371;-81
2021/09/17 14:30:40;;;;;;;0.00;0.00;;;;;;;;;;5051165;28;20032;-81
2021/09/17 14:33:06;;;;;;;0.10;0.10;;;;;;;;;;5056647;28;20041;-81
2021/09/17 14:35:32;;;;;;;0.20;0.13;;;;;;;;;;5061755;28;20568;-82
2021/09/17 14:37:58;;;;;;;0.28;0.28;;;;;;;;;;5059504;28;20444;-81
2021/09/17 14:40:28;;;;;;;0.35;0.35;;;;;;;;;;5033434;28;20041;-81
2021/09/17 14:42:54;;;;;;;0.10;0.10;;;;;;;;;;5054037;28;20081;-82
2021/09/17 14:45:20;;;;;;;0.30;0.30;;;;;;;;;;5059000;28;20501;-81
2021/09/17 14:47:46;;;;;;;0.20;0.20;;;;;;;;;;5045707;28;20074;-81